Station 41082 - OOI Pioneer - Mid-Atlantic Bight Central Surface Mooring Image indicating link to RSS feed of recent meteorological observations for station 41082


Conditions at 41082 as of
(10:00 am EDT)
1400 GMT on 05/02/2026:
Note: This report is more than two hours old
     

Click on the graph icon in the table below to see a time series plot of the last five days of that observation.

5-day plot - Wind Direction Wind Direction (WDIR): E ( 80 deg true )
5-day plot - Wind Speed Wind Speed (WSPD): 3.9 kts
5-day plot - Atmospheric Pressure Atmospheric Pressure (PRES):29.83 in
5-day plot - Pressure Tendency Pressure Tendency (PTDY):-0.02 in ( Falling )
5-day plot - Air Temperature Air Temperature (ATMP): 54.9 °F
5-day plot - Water Temperature Water Temperature (WTMP): 55.6 °F
5-day plot - Wind Speed at 10 Meters Wind Speed at 10 meters (WSPD10M): 3.9 kts
5-day plot - Wind Speed at 20 Meters Wind Speed at 20 meters (WSPD20M): 5.8 kts
5-day plot -  Wind Speed, Wind Gust and Atmospheric Pressure Combined plot of Wind Speed, Gust, and Air Pressure
Previous observations
TIME
(EDT)
5-day plot - Wind Direction
WDIR
 
5-day plot - Wind Speed
WSPD
kts
5-day plot - Wind Gust
GST
kts
5-day plot - Wave Height
WVHT
ft
5-day plot - Dominant Wave Period
DPD
sec
5-day plot - Average Wave Period
APD
sec
5-day plot - Mean Wave Direction
MWD
 
5-day plot - Atmospheric Pressure
PRES
in
5-day plot - Pressure Tendency
PTDY
in
5-day plot - Air Temperature
ATMP
°F
5-day plot - Water Temperature
WTMP
°F
5-day plot - Dew Point
DEWP
°F
5-day plot - Salinity
SAL
psu
5-day plot - Visibility
VIS
nmi
5-day plot - Tide (above MLLW)
TIDE
ft
2026-05-02 09:50 am E 5.8-----29.83- 54.9 55.8----
2026-05-02 09:40 am E 5.8-----29.83- 55.0 55.8----
2026-05-02 09:30 amENE 3.9-----29.84- 54.9 55.6----
2026-05-02 09:20 amENE 3.9-----29.85- 54.7 55.4----
2026-05-02 09:10 amENE 3.9-----29.85- 54.5 55.0----
2026-05-02 09:00 amENE 3.9-----29.85- 54.0 54.7----
2026-05-02 08:50 am N 3.9-----29.86- 53.4 54.3----
2026-05-02 08:40 amNNW 9.7-----29.86- 53.2 54.1----
2026-05-02 08:30 amWNW 9.7-----29.86- 53.2 54.3----
2026-05-02 08:20 amWNW 7.8-----29.85- 54.1 55.4----
2026-05-02 08:10 am NW 5.8-----29.85- 54.5 55.9----
2026-05-02 08:00 am NW 5.8-----29.84- 54.5 55.9----
2026-05-02 07:50 am NW 5.8-----29.84- 54.7 55.9----
2026-05-02 07:40 am NW 5.8-----29.85- 55.2 55.9----
2026-05-02 07:30 am NW 3.9-----29.85- 55.4 55.9----
2026-05-02 07:20 am NW 3.9-----29.85- 55.0 55.6----
2026-05-02 07:10 am NW 3.9-----29.85- 54.9 55.6----
2026-05-02 07:00 am NW 5.8-----29.85- 54.7 55.4----
2026-05-02 06:50 am NW 5.8-----29.85- 54.5 55.4----
2026-05-02 06:40 am NW 7.8-----29.85- 54.5 55.4----
2026-05-02 06:30 am NW 9.7-----29.85- 54.9 55.6----
2026-05-02 06:20 amWNW 11.7-----29.85- 55.6 56.1----
2026-05-02 06:10 amWNW 5.8-----29.84- 56.8 57.4----
2026-05-02 06:00 am NW 3.9-----29.84- 58.1 58.1----
2026-05-02 05:50 am NW 3.9-----29.83- 58.3 58.3----
2026-05-02 05:40 amSSW 1.9-----29.83- 59.9 58.5----
2026-05-02 05:30 am SE 7.8-----29.83- 60.8 59.0----
2026-05-02 05:20 amWSW 3.9-----29.83- 58.8 58.5----
2026-05-02 05:10 am SE 7.8-----29.83- 57.6 57.7----
2026-05-02 05:00 amESE 7.8-----29.83- 57.6 57.9----
2026-05-02 04:50 am SE 3.9-----29.83- 58.1 58.3----
2026-05-02 04:40 am S 1.9-----29.83- 58.3 58.3----
2026-05-02 04:30 amSSE 3.9-----29.83- 58.5 58.3----
2026-05-02 04:20 am SE 7.8-----29.83- 59.2 58.5----
2026-05-02 04:10 am SE 5.8-----29.83- 59.0 58.5----
2026-05-02 04:00 am W 5.8-----29.84- 57.0 57.2----
2026-05-02 03:50 am SE 5.8-----29.83- 58.3 57.7----
2026-05-02 03:40 am SE 5.8-----29.83- 58.5 57.7----
2026-05-02 03:30 am SE 5.8-----29.84- 58.6 57.7----
2026-05-02 03:20 amESE 3.9-----29.84- 58.1 57.4----
2026-05-02 03:10 amENE 1.9-----29.84- 56.8 56.7----
2026-05-02 03:00 am- 0.0-----29.84- 55.9 56.3----
2026-05-02 02:50 am NW 1.9-----29.85- 55.4 56.3----
2026-05-02 02:40 am- 0.0-----29.85- 55.6 56.3----
2026-05-02 02:30 am- 0.0-----29.85- 55.8 56.3----
2026-05-02 02:20 am NW 1.9-----29.86- 55.8 56.5----
2026-05-02 02:10 am NW 1.9-----29.86- 56.3 56.5----
2026-05-02 02:00 amNNW 1.9-----29.87- 56.5 56.5----
2026-05-02 01:50 am NW 3.9-----29.88- 55.6 55.9----
2026-05-02 01:40 am NW 3.9-----29.88- 55.6 55.8----
2026-05-02 01:30 am NW 7.8-----29.88- 54.9 55.6----
2026-05-02 01:20 am NW 5.8-----29.89- 54.9 55.4----
2026-05-02 01:10 am NW 5.8-----29.89- 54.9 55.6----
2026-05-02 01:00 am NW 5.8-----29.90- 54.9 55.6----
2026-05-02 12:50 am NW 5.8-----29.90- 54.9 55.6----
2026-05-02 12:40 am NW 3.9-----29.91- 54.9 55.6----
2026-05-02 12:30 am NW 3.9-----29.91- 55.0 55.6----
2026-05-02 12:20 am NW 3.9-----29.91- 55.0 55.6----
2026-05-02 12:10 am NW 1.9-----29.91- 55.4 55.6----
2026-05-02 12:00 am NW 1.9-----29.91- 55.2 55.4----
2026-05-01 11:50 pm NW 1.9-----29.92- 54.9 55.4----
2026-05-01 11:40 pm NW 1.9-----29.93- 54.7 55.4----
2026-05-01 11:30 pm NW 3.9-----29.92- 54.7 55.2----
2026-05-01 11:20 pm NW 3.9-----29.92- 54.9 55.2----
2026-05-01 11:10 pm NW 3.9-----29.92- 54.7 55.2----
2026-05-01 11:00 pm NW 3.9-----29.92- 54.9 55.2----
2026-05-01 10:50 pm NW 3.9-----29.92- 55.0 55.4----
2026-05-01 10:40 pm NW 3.9-----29.92- 55.4 55.4----
2026-05-01 10:30 pm NW 1.9-----29.93- 55.4 55.4----
2026-05-01 10:20 pm NW 1.9-----29.92- 55.2 55.4----
2026-05-01 10:10 pmNNE 1.9-----29.93- 55.2 55.2----
2026-05-01 10:00 pmNNE 1.9-----29.93- 55.0 55.2----
2026-05-01 09:50 pm- 0.0-----29.93- 55.0 55.4----
2026-05-01 09:40 pmWSW 1.9-----29.93- 55.0 55.4----
2026-05-01 09:30 pmWSW 3.9-----29.93- 55.0 55.4----
2026-05-01 09:20 pmWSW 1.9-----29.92- 55.4 55.4----
2026-05-01 09:10 pmWSW 3.9-----29.93- 57.4 56.1----
2026-05-01 09:00 pmWSW 3.9-----29.93- 61.0 56.7----
2026-05-01 08:50 pmWSW 3.9-----29.93- 61.0 56.5----
2026-05-01 08:40 pmWSW 3.9-----29.93- 60.4 56.1----
2026-05-01 08:30 pmWSW 5.8-----29.93- 59.5 55.9----
2026-05-01 08:20 pmWSW 3.9-----29.93- 58.1 55.6----
2026-05-01 08:10 pmWSW 3.9-----29.93- 57.9 55.4----
2026-05-01 08:00 pm SW 3.9-----29.93- 58.3 55.4----
2026-05-01 07:50 pm W 1.9-----29.93- 57.9 55.6----
2026-05-01 07:40 pmWNW 7.8-----29.93- 57.6 55.4----
2026-05-01 07:30 pmWNW 9.7-----29.92- 57.2 55.2----
2026-05-01 07:20 pm W 5.8-----29.93- 56.8 55.2----
2026-05-01 07:10 pm NE 3.9-----29.93- 56.7 54.9----
2026-05-01 07:00 pmENE 11.7-----29.92- 56.3 54.3----
2026-05-01 06:50 pmENE 11.7-----29.92- 56.1 53.6----
2026-05-01 06:40 pmENE 11.7-----29.93- 55.6 53.2----
2026-05-01 06:30 pmENE 11.7-----29.93- 55.4 53.1----
2026-05-01 06:20 pmENE 11.7-----29.93- 55.4 53.1----
2026-05-01 06:10 pmENE 11.7-----29.93- 55.2 53.1----
2026-05-01 06:00 pmENE 11.7-----29.93- 55.0 52.9----
2026-05-01 05:50 pmENE 11.7-----29.94- 55.0 53.1----
2026-05-01 05:40 pm NE 11.7-----29.93- 54.3 52.9----
2026-05-01 05:30 pmENE 9.7-----29.94- 54.0 52.7----
2026-05-01 05:20 pmENE 13.6-----29.94- 53.6 52.2----
2026-05-01 05:10 pmENE 13.6-----29.94- 53.4 52.2----
2026-05-01 05:00 pm NE 11.7-----29.95- 53.1 52.2----
2026-05-01 04:50 pm NE 13.6-----29.94- 52.9 52.0----
2026-05-01 04:40 pm NE 11.7-----29.94- 52.5 52.2----
2026-05-01 04:30 pm NE 13.6-----29.94- 52.3 52.0----
2026-05-01 04:20 pmENE 11.7-----29.94- 52.5 52.2----
2026-05-01 04:10 pmNNE 7.8-----29.94- 52.9 52.5----
2026-05-01 04:00 pmNNW 3.9-----29.95- 53.1 52.9----
2026-05-01 03:50 pm- 0.0-----29.96- 53.2 53.2----
2026-05-01 03:40 pm W 1.9-----29.97- 53.2 53.2----
2026-05-01 03:30 pm W 1.9-----29.98- 53.4 53.4----
2026-05-01 03:20 pm W 3.9-----29.98- 53.8 53.8----
2026-05-01 03:10 pm W 1.9-----29.98- 53.8 53.6----
2026-05-01 03:00 pm W 1.9-----29.98- 53.4 53.4----
2026-05-01 02:50 pm W 1.9-----29.98- 53.4 53.4----
2026-05-01 02:40 pm W 1.9-----29.98- 53.4 53.4----
2026-05-01 02:30 pmWNW 3.9-----29.98- 53.6 53.6----
2026-05-01 02:20 pm W 3.9-----29.99- 53.6 53.6----
2026-05-01 02:10 pmWNW 3.9-----29.99- 54.0 54.1----
2026-05-01 02:00 pmWNW 3.9-----29.99- 54.1 54.1----
2026-05-01 01:50 pmWNW 3.9-----29.99- 54.1 54.0----
2026-05-01 01:40 pmWNW 3.9-----30.00- 54.3 54.0----
2026-05-01 01:30 pmWNW 3.9-----30.00- 54.1 53.6----
2026-05-01 01:20 pmWNW 3.9-----29.99- 54.3 53.4----
2026-05-01 01:10 pmWNW 3.9-----29.99- 54.3 53.1----
2026-05-01 01:00 pmWNW 3.9-----29.99- 53.8 52.5----
2026-05-01 12:50 pmWNW 5.8-----29.99- 53.6 52.3----

Ocean Conditions at 41082 as of
(10:00 am EDT)
1400 GMT on 05/02/2026:
Note: This report is more than two hours old

These oceanographic data are displayed in rounded times.

     

Click on the graph icon in the table below to see a time series plot of the last five days of that observation.

Depth (DEPTH): 3.0 ft
5-day plot - Ocean Temperature Ocean Temperature (OTMP):55.65 °F
Previous observations
TIME
(EDT)
DEPTH
ft
5-day plot - Ocean Temperature
OTMP
°F
5-day plot - Conductivity
COND
mS/cm
5-day plot - Salinity
SAL
psu
5-day plot - Oxygen Saturation
O2%
%
5-day plot - Oxygen Concentration
O2PPM
ppm
5-day plot - Chlorophyll
CLCON
ug/l
5-day plot - Turbidity
TURB
FTU
5-day plot - pH
PH
 
5-day plot - Eh
EH
mV
2026-05-02 09:50 am 3.055.69--------
2026-05-02 09:40 am 3.055.71--------
2026-05-02 09:30 am 3.055.53--------
2026-05-02 09:20 am 3.055.31--------
2026-05-02 09:10 am 3.055.04--------
2026-05-02 09:00 am 3.054.66--------
2026-05-02 08:50 am 3.054.30--------
2026-05-02 08:40 am 3.054.10--------
2026-05-02 08:30 am 3.054.32--------
2026-05-02 08:20 am 3.055.38--------
2026-05-02 08:10 am 3.055.87--------
2026-05-02 08:00 am 3.055.89--------
2026-05-02 07:50 am 3.055.99--------
2026-05-02 07:40 am 3.056.01--------
2026-05-02 07:30 am 3.055.87--------
2026-05-02 07:20 am 3.055.65--------
2026-05-02 07:10 am 3.055.56--------
2026-05-02 07:00 am 3.055.45--------
2026-05-02 06:50 am 3.055.38--------
2026-05-02 06:40 am 3.055.31--------
2026-05-02 06:30 am 3.055.62--------
2026-05-02 06:20 am 3.056.05--------
2026-05-02 06:10 am 3.057.31--------
2026-05-02 06:00 am 3.058.10--------
2026-05-02 05:50 am 3.058.19--------
2026-05-02 05:40 am 3.058.42--------
2026-05-02 05:30 am 3.059.00--------
2026-05-02 05:20 am 3.058.48--------
2026-05-02 05:10 am 3.057.70--------
2026-05-02 05:00 am 3.057.94--------
2026-05-02 04:50 am 3.058.23--------
2026-05-02 04:40 am 3.058.24--------
2026-05-02 04:30 am 3.058.30--------
2026-05-02 04:20 am 3.058.48--------
2026-05-02 04:10 am 3.058.51--------
2026-05-02 04:00 am 3.057.15--------
2026-05-02 03:50 am 3.057.70--------
2026-05-02 03:40 am 3.057.83--------
2026-05-02 03:30 am 3.057.76--------
2026-05-02 03:20 am 3.057.33--------
2026-05-02 03:10 am 3.056.70--------
2026-05-02 03:00 am 3.056.37--------
2026-05-02 02:50 am 3.056.25--------
2026-05-02 02:40 am 3.056.32--------
2026-05-02 02:30 am 3.056.37--------
2026-05-02 02:20 am 3.056.43--------
2026-05-02 02:10 am 3.056.53--------
2026-05-02 02:00 am 3.056.41--------
2026-05-02 01:50 am 3.055.92--------
2026-05-02 01:40 am 3.055.69--------
2026-05-02 01:30 am 3.055.49--------
2026-05-02 01:20 am 3.055.40--------
2026-05-02 01:10 am 3.055.53--------
2026-05-02 01:00 am 3.055.54--------
2026-05-02 12:50 am 3.055.53--------
2026-05-02 12:40 am 3.055.58--------
2026-05-02 12:30 am 3.055.54--------
2026-05-02 12:20 am 3.055.56--------
2026-05-02 12:10 am 3.055.54--------
2026-05-02 12:00 am 3.055.42--------
2026-05-01 11:50 pm 3.055.33--------
2026-05-01 11:40 pm 3.055.33--------
2026-05-01 11:30 pm 3.055.26--------
2026-05-01 11:20 pm 3.055.20--------
2026-05-01 11:10 pm 3.055.22--------
2026-05-01 11:00 pm 3.055.29--------
2026-05-01 10:50 pm 3.055.35--------
2026-05-01 10:40 pm 3.055.38--------
2026-05-01 10:30 pm 3.055.40--------
2026-05-01 10:20 pm 3.055.33--------
2026-05-01 10:10 pm 3.055.20--------
2026-05-01 10:00 pm 3.055.17--------
2026-05-01 09:50 pm 3.055.38--------
2026-05-01 09:40 pm 3.055.35--------
2026-05-01 09:30 pm 3.055.33--------
2026-05-01 09:20 pm 3.055.47--------
2026-05-01 09:10 pm 3.056.16--------
2026-05-01 09:00 pm 3.056.73--------
2026-05-01 08:50 pm 3.056.46--------
2026-05-01 08:40 pm 3.056.19--------
2026-05-01 08:30 pm 3.055.90--------
2026-05-01 08:20 pm 3.055.51--------
2026-05-01 08:10 pm 3.055.31--------
2026-05-01 08:00 pm 3.055.40--------
2026-05-01 07:50 pm 3.055.51--------
2026-05-01 07:40 pm 3.055.35--------
2026-05-01 07:30 pm 3.055.24--------
2026-05-01 07:20 pm 3.055.15--------
2026-05-01 07:10 pm 3.054.91--------
2026-05-01 07:00 pm 3.054.32--------
2026-05-01 06:50 pm 3.053.69--------
2026-05-01 06:40 pm 3.053.24--------
2026-05-01 06:30 pm 3.053.06--------
2026-05-01 06:20 pm 3.053.10--------
2026-05-01 06:10 pm 3.052.97--------
2026-05-01 06:00 pm 3.052.81--------
2026-05-01 05:50 pm 3.053.01--------
2026-05-01 05:40 pm 3.052.84--------
2026-05-01 05:30 pm 3.052.65--------
2026-05-01 05:20 pm 3.052.23--------
2026-05-01 05:10 pm 3.052.09--------
2026-05-01 05:00 pm 3.052.11--------
2026-05-01 04:50 pm 3.052.02--------
2026-05-01 04:40 pm 3.052.23--------
2026-05-01 04:30 pm 3.052.05--------
2026-05-01 04:20 pm 3.052.11--------
2026-05-01 04:10 pm 3.052.57--------
2026-05-01 04:00 pm 3.052.95--------
2026-05-01 03:50 pm 3.053.15--------
2026-05-01 03:40 pm 3.053.31--------
2026-05-01 03:30 pm 3.053.46--------
2026-05-01 03:20 pm 3.053.71--------
2026-05-01 03:10 pm 3.053.53--------
2026-05-01 03:00 pm 3.053.51--------
2026-05-01 02:50 pm 3.053.49--------
2026-05-01 02:40 pm 3.053.46--------
2026-05-01 02:30 pm 3.053.64--------
2026-05-01 02:20 pm 3.053.65--------
2026-05-01 02:10 pm 3.054.07--------
2026-05-01 02:00 pm 3.054.10--------
2026-05-01 01:50 pm 3.053.87--------
2026-05-01 01:40 pm 3.054.03--------
2026-05-01 01:30 pm 3.053.55--------
2026-05-01 01:20 pm 3.053.37--------
2026-05-01 01:10 pm 3.053.08--------
2026-05-01 01:00 pm 3.052.61--------
2026-05-01 12:50 pm 3.052.30--------

Solar Radiation Conditions at 41082 as of
(10:00 am EDT)
1400 GMT on 05/02/2026:
Note: This report is more than two hours old
     

Click on the graph icon in the table below to see a time series plot of the last five days of that observation.

5-day plot - Short Wave Radiation 1 Short Wave Radiation 1 (SRAD1): 66.6watts/meter2
5-day plot - Long Wave Radiation Long Wave Radiation (LWRAD): 376.6watts/meter2
Previous observations
TIME
(EDT)
5-day plot - Short Wave Radiation 1
SRAD1
w/m2
5-day plot - Short Wave Radiation 2
SRAD2
w/m2
5-day plot - Long Wave Radiation
LRAD
w/m2
2026-05-02 09:50 am 83.3- 377.2
2026-05-02 09:40 am 83.1- 378.4
2026-05-02 09:30 am 72.6- 378.5
2026-05-02 09:20 am 58.0- 379.9
2026-05-02 09:10 am 62.1- 379.5
2026-05-02 09:00 am 54.0- 378.9
2026-05-02 08:50 am 48.1- 378.3
2026-05-02 08:40 am 36.2- 376.9
2026-05-02 08:30 am 28.0- 376.2
2026-05-02 08:20 am 35.8- 378.9
2026-05-02 08:10 am 43.4- 380.3
2026-05-02 08:00 am 52.3- 378.9
2026-05-02 07:50 am 47.0- 378.9
2026-05-02 07:40 am 49.1- 379.1
2026-05-02 07:30 am 24.9- 381.8
2026-05-02 07:20 am 19.9- 381.1
2026-05-02 07:10 am 20.8- 380.5
2026-05-02 07:00 am 13.2- 381.9
2026-05-02 06:50 am 9.7- 382.9
2026-05-02 06:40 am 9.8- 382.3
2026-05-02 06:30 am 8.8- 382.3
2026-05-02 06:20 am 6.2- 382.5
2026-05-02 06:10 am 5.9- 386.4
2026-05-02 06:00 am 6.3- 390.0
2026-05-02 05:50 am 5.9- 391.1
2026-05-02 05:40 am 6.4- 389.1
2026-05-02 05:30 am 8.2- 385.8
2026-05-02 05:20 am 8.0- 386.1
2026-05-02 05:10 am 6.6- 384.1
2026-05-02 05:00 am 6.1- 378.2
2026-05-02 04:50 am 6.2- 377.9
2026-05-02 04:40 am 6.1- 377.8
2026-05-02 04:30 am 6.3- 381.6
2026-05-02 04:20 am 7.2- 387.6
2026-05-02 04:10 am 8.3- 390.2
2026-05-02 04:00 am 5.9- 385.5
2026-05-02 03:50 am 6.7- 385.1
2026-05-02 03:40 am 6.9- 382.3
2026-05-02 03:30 am 7.6- 380.9
2026-05-02 03:20 am 8.0- 381.6
2026-05-02 03:10 am 7.3- 380.7
2026-05-02 03:00 am 6.9- 380.5
2026-05-02 02:50 am 6.6- 381.7
2026-05-02 02:40 am 6.6- 382.1
2026-05-02 02:30 am 6.7- 381.4
2026-05-02 02:20 am 6.5- 376.4
2026-05-02 02:10 am 6.9- 375.5
2026-05-02 02:00 am 7.5- 385.0
2026-05-02 01:50 am 7.0- 384.7
2026-05-02 01:40 am 7.3- 380.0
2026-05-02 01:30 am 6.9- 380.8
2026-05-02 01:20 am 6.7- 381.3
2026-05-02 01:10 am 6.9- 381.4
2026-05-02 01:00 am 6.8- 381.2
2026-05-02 12:50 am 6.7- 380.0
2026-05-02 12:40 am 6.6- 377.8
2026-05-02 12:30 am 6.6- 377.1
2026-05-02 12:20 am 6.7- 378.1
2026-05-02 12:10 am 6.9- 379.1
2026-05-02 12:00 am 6.8- 378.5
2026-05-01 11:50 pm 6.4- 377.9
2026-05-01 11:40 pm 6.3- 379.6
2026-05-01 11:30 pm 6.5- 379.7
2026-05-01 11:20 pm 6.6- 378.3
2026-05-01 11:10 pm 6.3- 378.1
2026-05-01 11:00 pm 6.2- 375.8
2026-05-01 10:50 pm 6.1- 374.4
2026-05-01 10:40 pm 6.2- 375.2
2026-05-01 10:30 pm 6.3- 375.6
2026-05-01 10:20 pm 6.1- 375.2
2026-05-01 10:10 pm 5.8- 375.1
2026-05-01 10:00 pm 5.5- 375.7
2026-05-01 09:50 pm 5.4- 375.4
2026-05-01 09:40 pm 5.5- 375.4
2026-05-01 09:30 pm 4.8- 373.7
2026-05-01 09:20 pm 3.7- 373.1
2026-05-01 09:10 pm 3.7- 373.4
2026-05-01 09:00 pm 6.8- 379.6
2026-05-01 08:50 pm 7.8- 382.3
2026-05-01 08:40 pm 8.2- 382.6
2026-05-01 08:30 pm 8.2- 381.3
2026-05-01 08:20 pm 6.9- 378.3
2026-05-01 08:10 pm 6.3- 374.6
2026-05-01 08:00 pm 7.0- 374.9
2026-05-01 07:50 pm 7.3- 374.3
2026-05-01 07:40 pm 8.6- 373.6
2026-05-01 07:30 pm 12.5- 372.6
2026-05-01 07:20 pm 18.1- 365.3
2026-05-01 07:10 pm 24.1- 364.2
2026-05-01 07:00 pm 29.0- 369.2
2026-05-01 06:50 pm 41.6- 367.6
2026-05-01 06:40 pm 69.4- 363.8
2026-05-01 06:30 pm 60.5- 359.7
2026-05-01 06:20 pm 95.5- 357.4
2026-05-01 06:10 pm 117.9- 348.8
2026-05-01 06:00 pm 127.6- 342.9
2026-05-01 05:50 pm 424.1- 335.6
2026-05-01 05:40 pm 611.0- 333.4
2026-05-01 05:30 pm 419.5- 333.8
2026-05-01 05:20 pm 572.9- 331.8
2026-05-01 05:10 pm 598.0- 340.0
2026-05-01 05:00 pm 383.4- 347.8
2026-05-01 04:50 pm 363.5- 339.5
2026-05-01 04:40 pm 435.0- 336.5
2026-05-01 04:30 pm 304.4- 347.1
2026-05-01 04:20 pm 234.3- 354.9
2026-05-01 04:10 pm 265.0- 356.2
2026-05-01 04:00 pm 152.1- 359.9
2026-05-01 03:50 pm 105.8- 359.7
2026-05-01 03:40 pm 97.8- 359.3
2026-05-01 03:30 pm 169.8- 358.1
2026-05-01 03:20 pm 303.2- 355.3
2026-05-01 03:10 pm 527.4- 353.2
2026-05-01 03:00 pm 294.6- 356.9
2026-05-01 02:50 pm 157.8- 358.1
2026-05-01 02:40 pm 212.7- 357.7
2026-05-01 02:30 pm 221.7- 358.2
2026-05-01 02:20 pm 217.9- 358.4
2026-05-01 02:10 pm 207.7- 358.4
2026-05-01 02:00 pm 425.6- 358.4
2026-05-01 01:50 pm 599.5- 358.1
2026-05-01 01:40 pm 539.4- 356.8
2026-05-01 01:30 pm 519.2- 355.4
2026-05-01 01:20 pm 578.3- 352.6
2026-05-01 01:10 pm 751.3- 349.1
2026-05-01 01:00 pm 563.0- 349.5
2026-05-01 12:50 pm 391.9- 354.1